createdAt,value
2022-10-30T00:00:40.632Z,17.40
2022-10-30T00:03:09.740Z,13.38
2022-10-30T00:05:36.377Z,9.80
2022-10-30T00:08:03.085Z,7.78
2022-10-30T00:10:29.663Z,14.43
2022-10-30T00:12:56.313Z,11.05
2022-10-30T00:15:22.952Z,10.52
2022-10-30T00:17:49.529Z,18.05
2022-10-30T00:20:16.168Z,11.95
2022-10-30T00:22:42.768Z,17.10
2022-10-30T00:25:09.618Z,10.52
2022-10-30T00:27:36.261Z,14.73
2022-10-30T00:30:02.889Z,18.15
2022-10-30T00:32:29.516Z,16.67
2022-10-30T00:34:56.134Z,13.20
2022-10-30T00:37:22.764Z,21.63
2022-10-30T00:39:49.347Z,12.50
2022-10-30T00:42:16.370Z,15.73
2022-10-30T00:44:48.257Z,9.93
2022-10-30T00:47:21.220Z,18.85
2022-10-30T00:50:09.337Z,10.98
2022-10-30T00:52:39.325Z,13.18
2022-10-30T00:55:10.393Z,12.63
2022-10-30T00:57:37.083Z,13.13
2022-10-30T01:00:04.827Z,15.80
2022-10-30T01:02:31.529Z,21.25
2022-10-30T01:04:58.309Z,22.95
2022-10-30T01:07:25.169Z,13.52
2022-10-30T01:09:52.801Z,10.75
2022-10-30T01:12:19.374Z,11.55
2022-10-30T01:14:50.242Z,14.20
2022-10-30T01:20:38.750Z,12.23
2022-10-30T01:23:30.454Z,11.48
2022-10-30T01:26:21.600Z,7.72
2022-10-30T01:32:10.205Z,21.23
2022-10-30T01:35:06.808Z,18.25
2022-10-30T01:37:58.727Z,24.15
2022-10-30T01:40:25.501Z,15.75
2022-10-30T01:42:55.741Z,9.65
2022-10-30T01:45:33.779Z,13.40
2022-10-30T01:48:11.625Z,8.82
2022-10-30T01:51:02.764Z,15.63
2022-10-30T01:53:47.029Z,10.35
2022-10-30T01:56:23.392Z,17.05
2022-10-30T01:59:11.807Z,16.15
2022-10-30T02:01:38.490Z,14.57
2022-10-30T02:04:05.175Z,12.25
2022-10-30T02:06:31.753Z,17.13
2022-10-30T02:08:58.347Z,16.73
2022-10-30T02:11:25.475Z,14.52
2022-10-30T02:13:52.297Z,10.38
2022-10-30T02:16:18.866Z,15.65
2022-10-30T02:21:17.067Z,11.35
2022-10-30T02:23:43.669Z,9.23
2022-10-30T02:26:10.434Z,17.52
2022-10-30T02:28:37.055Z,17.15
2022-10-30T02:31:03.746Z,9.40
2022-10-30T02:33:30.279Z,13.52
2022-10-30T02:35:56.889Z,13.98
2022-10-30T02:38:23.994Z,13.35
2022-10-30T02:40:50.641Z,10.50
2022-10-30T02:43:17.230Z,12.52
2022-10-30T02:45:43.823Z,12.60
2022-10-30T02:50:42.026Z,14.23
2022-10-30T02:53:08.638Z,15.85
2022-10-30T02:55:35.223Z,13.35
2022-10-30T02:58:01.815Z,20.33
2022-10-30T03:00:28.434Z,13.10
2022-10-30T03:02:56.137Z,11.85
2022-10-30T03:05:22.909Z,10.55
2022-10-30T03:07:49.470Z,16.27
2022-10-30T03:10:16.114Z,9.38
2022-10-30T03:12:42.706Z,11.93
2022-10-30T03:15:09.877Z,14.52
2022-10-30T03:17:36.586Z,14.95
2022-10-30T03:20:03.301Z,13.98
2022-10-30T03:22:29.854Z,17.73
2022-10-30T03:24:56.491Z,12.65
2022-10-30T03:27:23.094Z,10.70
2022-10-30T03:29:49.690Z,16.83
2022-10-30T03:32:16.316Z,18.67
2022-10-30T03:34:43.056Z,16.20
2022-10-30T03:37:09.666Z,17.38
2022-10-30T03:39:36.238Z,14.70
2022-10-30T03:42:02.853Z,10.90
2022-10-30T03:44:29.441Z,12.88
2022-10-30T03:46:56.137Z,12.02
2022-10-30T03:49:22.784Z,12.48
2022-10-30T03:51:49.420Z,12.88
2022-10-30T03:54:15.997Z,11.95
2022-10-30T03:56:42.565Z,16.42
2022-10-30T03:59:09.148Z,11.98
2022-10-30T04:01:35.874Z,7.90
2022-10-30T04:04:02.546Z,10.98
2022-10-30T04:06:29.128Z,15.45
2022-10-30T04:08:55.766Z,11.25
2022-10-30T04:11:22.339Z,17.58
2022-10-30T04:13:49.122Z,10.27
2022-10-30T04:16:15.733Z,16.95
2022-10-30T04:18:42.338Z,10.75
2022-10-30T04:21:08.958Z,19.50
2022-10-30T04:23:35.540Z,10.00
2022-10-30T04:26:02.206Z,17.65
2022-10-30T04:28:28.827Z,8.85
2022-10-30T04:30:56.058Z,10.18
2022-10-30T04:33:22.774Z,12.23
2022-10-30T04:35:49.391Z,14.07
2022-10-30T04:38:16.596Z,14.77
2022-10-30T04:40:43.521Z,17.02
2022-10-30T04:43:10.429Z,10.57
2022-10-30T04:45:37.095Z,11.50
2022-10-30T04:48:07.163Z,9.32
2022-10-30T04:50:34.130Z,13.38
2022-10-30T04:53:02.069Z,17.13
2022-10-30T04:55:29.345Z,10.27
2022-10-30T04:57:57.775Z,6.18
2022-10-30T05:00:24.934Z,11.48
2022-10-30T05:02:51.702Z,14.40
2022-10-30T05:05:18.485Z,11.90
2022-10-30T05:07:45.104Z,14.02
2022-10-30T05:10:14.638Z,16.40
2022-10-30T05:12:43.261Z,9.38
2022-10-30T05:15:10.529Z,9.68
2022-10-30T05:17:37.317Z,11.20
2022-10-30T05:20:04.801Z,11.40
2022-10-30T05:22:31.429Z,12.50
2022-10-30T05:24:58.115Z,7.97
2022-10-30T05:27:24.716Z,10.75
2022-10-30T05:29:51.460Z,9.35
2022-10-30T05:32:18.104Z,11.25
2022-10-30T05:34:45.142Z,19.77
2022-10-30T05:37:11.763Z,11.88
2022-10-30T05:39:38.388Z,8.73
2022-10-30T05:42:07.561Z,13.05
2022-10-30T05:44:59.084Z,6.90
2022-10-30T05:47:23.059Z,11.18
2022-10-30T05:49:49.648Z,12.98
2022-10-30T05:52:16.232Z,10.35
2022-10-30T05:54:42.841Z,9.55
2022-10-30T05:57:09.414Z,12.20
2022-10-30T05:59:36.093Z,7.30
2022-10-30T06:02:02.769Z,7.30
2022-10-30T06:04:29.457Z,17.98
2022-10-30T06:06:56.077Z,9.13
2022-10-30T06:09:22.701Z,11.95
2022-10-30T06:11:49.385Z,11.68
2022-10-30T06:14:16.001Z,10.20
2022-10-30T06:16:42.570Z,17.45
2022-10-30T06:19:10.758Z,7.18
2022-10-30T06:21:40.459Z,21.67
2022-10-30T06:24:07.346Z,6.25
2022-10-30T06:26:33.953Z,9.98
2022-10-30T06:29:00.560Z,10.23
2022-10-30T06:31:27.188Z,14.27
2022-10-30T06:33:53.853Z,9.82
2022-10-30T06:36:20.422Z,14.60
2022-10-30T06:38:47.097Z,8.35
2022-10-30T06:41:13.706Z,10.63
2022-10-30T06:43:40.351Z,11.45
2022-10-30T06:48:38.452Z,13.15
2022-10-30T06:51:05.143Z,11.20
2022-10-30T06:53:31.802Z,18.90
2022-10-30T06:55:59.603Z,7.68
2022-10-30T06:58:26.562Z,12.70
2022-10-30T07:00:53.304Z,19.90
2022-10-30T07:03:20.161Z,12.00
2022-10-30T07:05:47.086Z,12.23
2022-10-30T07:08:13.765Z,8.93
2022-10-30T07:10:40.497Z,10.35
2022-10-30T07:13:07.087Z,12.20
2022-10-30T07:15:33.781Z,16.95
2022-10-30T07:18:03.310Z,16.80
2022-10-30T07:20:31.523Z,8.93
2022-10-30T07:22:58.188Z,13.73
2022-10-30T07:25:24.814Z,12.48
2022-10-30T07:27:52.267Z,10.68
2022-10-30T07:30:20.480Z,12.25
2022-10-30T07:32:47.110Z,12.93
2022-10-30T07:35:14.272Z,11.20
2022-10-30T07:37:40.860Z,8.95
2022-10-30T07:40:12.495Z,9.35
2022-10-30T07:42:39.741Z,12.15
2022-10-30T07:45:06.955Z,10.63
2022-10-30T07:47:33.555Z,17.48
2022-10-30T07:50:00.162Z,10.18
2022-10-30T07:52:30.703Z,16.17
2022-10-30T07:54:57.358Z,7.25
2022-10-30T07:57:23.999Z,11.80
2022-10-30T07:59:50.581Z,10.90
2022-10-30T08:02:17.307Z,9.70
2022-10-30T08:04:44.056Z,8.07
2022-10-30T08:07:10.655Z,9.88
2022-10-30T08:09:37.242Z,7.20
2022-10-30T08:12:04.149Z,11.40
2022-10-30T08:14:30.740Z,9.82
2022-10-30T08:16:57.383Z,8.07
2022-10-30T08:19:23.993Z,9.57
2022-10-30T08:21:50.667Z,14.57
2022-10-30T08:24:17.328Z,6.88
2022-10-30T08:26:43.901Z,6.07
2022-10-30T08:29:10.624Z,10.80
2022-10-30T08:31:37.202Z,13.63
2022-10-30T08:34:04.552Z,9.57
2022-10-30T08:36:31.225Z,8.20
2022-10-30T08:38:58.440Z,11.18
2022-10-30T08:41:25.008Z,10.70
2022-10-30T08:43:51.708Z,8.63
2022-10-30T08:46:18.295Z,7.20
2022-10-30T08:48:44.918Z,7.35
2022-10-30T08:51:11.473Z,14.43
2022-10-30T08:53:38.117Z,15.02
2022-10-30T08:56:05.324Z,11.30
2022-10-30T08:58:31.922Z,11.25
2022-10-30T09:01:01.369Z,13.80
2022-10-30T09:03:28.428Z,16.20
2022-10-30T09:05:55.038Z,14.73
2022-10-30T09:08:21.717Z,12.82
2022-10-30T09:10:48.323Z,9.20
2022-10-30T09:13:14.913Z,16.90
2022-10-30T09:15:41.502Z,15.07
2022-10-30T09:18:08.940Z,12.13
2022-10-30T09:20:35.558Z,9.38
2022-10-30T09:23:02.755Z,9.77
2022-10-30T09:25:29.708Z,14.23
2022-10-30T09:27:56.350Z,10.18
2022-10-30T09:30:23.163Z,8.27
2022-10-30T09:32:58.721Z,14.65
2022-10-30T09:35:25.875Z,11.40
2022-10-30T09:37:52.453Z,13.35
2022-10-30T09:40:30.422Z,8.80
2022-10-30T09:43:03.646Z,10.95
2022-10-30T09:46:07.251Z,13.20
2022-10-30T09:48:46.205Z,12.35
2022-10-30T09:51:39.320Z,11.27
2022-10-30T09:54:19.485Z,15.10
2022-10-30T09:56:49.633Z,13.38
2022-10-30T09:59:39.421Z,6.78
2022-10-30T10:02:21.318Z,14.27
2022-10-30T10:04:49.947Z,8.95
2022-10-30T10:07:21.893Z,12.30
2022-10-30T10:09:49.691Z,8.38
2022-10-30T10:12:39.400Z,10.13
2022-10-30T10:15:21.549Z,15.02
2022-10-30T10:17:48.285Z,10.65
2022-10-30T10:20:20.221Z,11.80
2022-10-30T10:22:49.422Z,8.85
2022-10-30T10:25:17.937Z,15.13
2022-10-30T10:28:07.549Z,10.38
2022-10-30T10:30:42.195Z,9.65
2022-10-30T10:33:33.641Z,18.15
2022-10-30T10:36:23.380Z,9.40
2022-10-30T10:39:06.174Z,13.68
2022-10-30T10:44:38.957Z,10.52
2022-10-30T10:47:32.169Z,14.90
2022-10-30T10:50:23.050Z,16.75
2022-10-30T10:53:01.847Z,10.20
2022-10-30T10:55:31.981Z,9.02
2022-10-30T10:57:59.778Z,15.48
2022-10-30T11:00:28.103Z,9.15
2022-10-30T11:03:13.147Z,8.30
2022-10-30T11:05:42.929Z,12.15
2022-10-30T11:08:30.434Z,7.53
2022-10-30T11:10:59.494Z,9.55
2022-10-30T11:13:29.713Z,12.73
2022-10-30T11:16:05.470Z,10.85
2022-10-30T11:18:32.211Z,6.40
2022-10-30T11:21:01.965Z,11.65
2022-10-30T11:26:26.584Z,12.80
2022-10-30T11:28:56.910Z,10.30
2022-10-30T11:33:59.687Z,12.00
2022-10-30T11:36:26.464Z,10.30
2022-10-30T11:38:53.099Z,19.27
2022-10-30T11:41:19.721Z,10.38
2022-10-30T11:43:46.469Z,7.85
2022-10-30T11:46:23.395Z,21.55
2022-10-30T11:48:55.237Z,9.18
2022-10-30T11:51:38.227Z,12.52
2022-10-30T11:54:05.057Z,14.95
2022-10-30T11:56:32.074Z,11.80
2022-10-30T11:58:59.791Z,17.55
2022-10-30T12:01:28.455Z,13.82
2022-10-30T12:03:55.659Z,9.60
2022-10-30T12:11:44.862Z,11.25
2022-10-30T12:14:27.118Z,13.38
2022-10-30T12:16:55.643Z,12.57
2022-10-30T12:19:23.651Z,10.35
2022-10-30T12:21:53.441Z,7.80
2022-10-30T12:24:31.947Z,14.95
2022-10-30T12:27:01.848Z,10.27
2022-10-30T12:32:39.654Z,13.55
2022-10-30T12:37:54.755Z,8.25
2022-10-30T12:40:25.651Z,12.05
2022-10-30T12:43:27.495Z,12.50
2022-10-30T12:46:04.787Z,9.82
2022-10-30T12:48:37.782Z,15.93
2022-10-30T12:51:24.247Z,14.65
2022-10-30T12:54:04.739Z,12.32
2022-10-30T12:56:36.295Z,14.02
2022-10-30T13:02:27.314Z,13.88
2022-10-30T13:04:57.925Z,10.68
2022-10-30T13:07:30.076Z,14.05
2022-10-30T13:10:11.774Z,10.68
2022-10-30T13:12:39.423Z,17.85
2022-10-30T13:15:11.057Z,12.60
2022-10-30T13:17:37.671Z,14.05
2022-10-30T13:20:11.462Z,11.52
2022-10-30T13:22:51.410Z,12.90
2022-10-30T13:25:38.088Z,14.60
2022-10-30T13:28:23.910Z,15.63
2022-10-30T13:31:10.001Z,16.60
2022-10-30T13:33:41.056Z,19.70
2022-10-30T13:36:14.852Z,17.00
2022-10-30T13:38:49.409Z,11.82
2022-10-30T13:41:42.279Z,16.88
2022-10-30T13:44:35.263Z,14.95
2022-10-30T13:49:54.558Z,10.27
2022-10-30T13:52:21.349Z,15.23
2022-10-30T13:55:13.627Z,10.75
2022-10-30T13:57:46.617Z,16.67
2022-10-30T14:00:42.421Z,26.92
2022-10-30T14:05:51.484Z,18.33
2022-10-30T14:08:34.401Z,14.00
2022-10-30T14:11:01.231Z,17.73
2022-10-30T14:13:31.781Z,16.58
2022-10-30T14:16:02.837Z,18.08
2022-10-30T14:18:31.364Z,13.75
2022-10-30T14:20:59.110Z,12.73
2022-10-30T14:23:36.143Z,16.20
2022-10-30T14:28:41.636Z,17.63
2022-10-30T14:31:10.892Z,14.18
2022-10-30T14:33:56.228Z,11.98
2022-10-30T14:36:25.678Z,13.88
2022-10-30T14:38:55.037Z,14.15
2022-10-30T14:41:46.445Z,13.77
2022-10-30T14:44:35.558Z,20.25
2022-10-30T14:47:15.613Z,15.27
2022-10-30T14:49:48.297Z,15.15
2022-10-30T14:55:22.625Z,11.18
2022-10-30T14:58:07.984Z,16.50
2022-10-30T15:03:18.825Z,17.48
2022-10-30T15:09:03.339Z,15.07
2022-10-30T15:11:37.552Z,10.98
2022-10-30T15:14:21.181Z,13.15
2022-10-30T15:16:49.437Z,20.73
2022-10-30T15:19:16.162Z,11.25
2022-10-30T15:21:44.401Z,23.77
2022-10-30T15:24:14.054Z,18.15
2022-10-30T15:26:40.695Z,15.85
2022-10-30T15:29:07.275Z,13.98
2022-10-30T15:31:33.883Z,12.57
2022-10-30T15:34:00.542Z,8.82
2022-10-30T15:36:34.134Z,17.70
2022-10-30T15:39:12.608Z,14.85
2022-10-30T15:41:43.905Z,13.98
2022-10-30T15:44:12.387Z,8.63
2022-10-30T15:46:39.325Z,15.95
2022-10-30T15:49:05.908Z,16.55
2022-10-30T15:51:34.214Z,16.50
2022-10-30T15:54:01.256Z,12.43
2022-10-30T15:56:33.787Z,14.00
2022-10-30T15:59:01.908Z,16.83
2022-10-30T16:01:39.120Z,11.20
2022-10-30T16:04:15.654Z,20.10
2022-10-30T16:09:28.396Z,20.13
2022-10-30T16:11:56.489Z,12.77
2022-10-30T16:14:27.731Z,22.30
2022-10-30T16:16:54.399Z,20.00
2022-10-30T16:19:28.992Z,16.98
2022-10-30T16:21:56.453Z,16.95
2022-10-30T16:24:26.169Z,20.83
2022-10-30T16:27:15.717Z,23.02
2022-10-30T16:29:42.494Z,17.80
2022-10-30T16:34:39.883Z,10.13
2022-10-30T16:37:07.069Z,16.65
2022-10-30T16:39:33.918Z,22.77
2022-10-30T16:42:00.583Z,19.05
2022-10-30T16:44:29.613Z,17.88
2022-10-30T16:46:58.446Z,16.58
2022-10-30T16:49:27.432Z,18.25
2022-10-30T16:52:00.378Z,14.43
2022-10-30T16:54:29.210Z,19.48
2022-10-30T16:56:56.654Z,22.08
2022-10-30T16:59:26.606Z,14.73
2022-10-30T17:01:55.136Z,14.10
2022-10-30T17:04:21.895Z,15.63
2022-10-30T17:06:50.261Z,28.23
2022-10-30T17:09:36.091Z,16.27
2022-10-30T17:12:11.577Z,20.65
2022-10-30T17:14:43.351Z,20.23
2022-10-30T17:17:22.611Z,13.53
2022-10-30T17:19:49.562Z,11.50
2022-10-30T17:22:19.061Z,18.23
2022-10-30T17:24:47.526Z,20.77
2022-10-30T17:27:46.189Z,25.67
2022-10-30T17:30:35.629Z,14.52
2022-10-30T17:33:04.065Z,12.73
2022-10-30T17:35:30.735Z,17.77
2022-10-30T17:37:59.847Z,14.55
2022-10-30T17:40:29.361Z,21.38
2022-10-30T17:42:56.008Z,16.25
2022-10-30T17:45:22.583Z,21.25
2022-10-30T17:47:49.158Z,21.17
2022-10-30T17:50:15.800Z,23.85
2022-10-30T17:52:42.479Z,16.70
2022-10-30T17:55:20.979Z,20.45
2022-10-30T17:57:47.671Z,15.38
2022-10-30T18:00:14.579Z,17.33
2022-10-30T18:02:41.634Z,14.43
2022-10-30T18:05:28.951Z,21.50
2022-10-30T18:07:55.589Z,14.85
2022-10-30T18:10:22.176Z,16.25
2022-10-30T18:12:48.790Z,20.77
2022-10-30T18:15:35.810Z,17.95
2022-10-30T18:18:03.495Z,15.10
2022-10-30T18:20:30.135Z,18.63
2022-10-30T18:22:57.182Z,13.57
2022-10-30T18:25:26.297Z,12.93
2022-10-30T18:27:52.959Z,17.38
2022-10-30T18:30:19.925Z,23.77
2022-10-30T18:32:46.778Z,23.45
2022-10-30T18:35:24.623Z,24.05
2022-10-30T18:37:51.235Z,26.70
2022-10-30T18:40:21.784Z,16.52
2022-10-30T18:42:49.243Z,14.20
2022-10-30T18:45:19.201Z,14.85
2022-10-30T18:47:46.130Z,19.60
2022-10-30T18:50:12.826Z,17.98
2022-10-30T18:52:39.448Z,17.00
2022-10-30T18:55:17.369Z,21.00
2022-10-30T18:57:44.633Z,31.13
2022-10-30T19:00:11.845Z,33.03
2022-10-30T19:02:38.533Z,18.70
2022-10-30T19:05:31.013Z,22.23
2022-10-30T19:07:58.503Z,19.08
2022-10-30T19:10:26.434Z,22.80
2022-10-30T19:13:17.455Z,33.85
2022-10-30T19:15:45.719Z,22.65
2022-10-30T19:18:12.599Z,21.10
2022-10-30T19:20:58.902Z,24.27
2022-10-30T19:23:26.030Z,25.90
2022-10-30T19:25:52.936Z,21.20
2022-10-30T19:28:20.210Z,27.98
2022-10-30T19:30:50.111Z,24.08
2022-10-30T19:33:18.250Z,29.50
2022-10-30T19:35:44.925Z,23.90
2022-10-30T19:38:12.166Z,23.33
2022-10-30T19:40:41.698Z,20.25
2022-10-30T19:43:08.392Z,27.27
2022-10-30T19:45:35.122Z,27.42
2022-10-30T19:48:04.340Z,22.67
2022-10-30T19:50:35.106Z,22.23
2022-10-30T19:53:02.474Z,22.05
2022-10-30T19:55:30.773Z,25.52
2022-10-30T19:57:58.218Z,22.40
2022-10-30T20:00:31.162Z,28.95
2022-10-30T20:05:26.578Z,25.83
2022-10-30T20:08:03.974Z,25.38
2022-10-30T20:10:32.744Z,21.00
2022-10-30T20:12:59.492Z,20.45
2022-10-30T20:15:27.360Z,23.70
2022-10-30T20:17:54.071Z,29.05
2022-10-30T20:20:23.437Z,21.95
2022-10-30T20:22:50.112Z,19.77
2022-10-30T20:25:16.901Z,22.15
2022-10-30T20:27:43.919Z,22.33
2022-10-30T20:30:14.756Z,19.23
2022-10-30T20:32:41.347Z,22.75
2022-10-30T20:35:10.465Z,30.95
2022-10-30T20:37:38.130Z,22.52
2022-10-30T20:40:05.493Z,24.25
2022-10-30T20:42:36.954Z,20.55
2022-10-30T20:45:04.536Z,22.85
2022-10-30T20:47:31.197Z,28.60
2022-10-30T20:49:57.859Z,27.15
2022-10-30T20:52:24.472Z,29.33
2022-10-30T20:54:51.098Z,22.50
2022-10-30T20:57:17.720Z,25.17
2022-10-30T20:59:44.303Z,26.17
2022-10-30T21:02:11.799Z,27.48
2022-10-30T21:04:38.519Z,25.10
2022-10-30T21:07:05.114Z,21.10
2022-10-30T21:09:31.782Z,20.92
2022-10-30T21:11:58.403Z,22.05
2022-10-30T21:14:25.031Z,30.77
2022-10-30T21:16:51.584Z,32.80
2022-10-30T21:19:18.196Z,27.25
2022-10-30T21:21:44.816Z,20.80
2022-10-30T21:24:11.491Z,27.33
2022-10-30T21:26:38.165Z,22.95
2022-10-30T21:29:05.203Z,19.80
2022-10-30T21:31:31.869Z,19.40
2022-10-30T21:33:58.508Z,18.50
2022-10-30T21:36:25.104Z,21.02
2022-10-30T21:38:51.736Z,23.67
2022-10-30T21:41:19.858Z,29.40
2022-10-30T21:43:50.814Z,27.33
2022-10-30T21:46:17.491Z,23.52
2022-10-30T21:48:44.095Z,18.88
2022-10-30T21:51:12.381Z,24.63
2022-10-30T21:53:39.176Z,17.30
2022-10-30T21:56:08.833Z,23.23
2022-10-30T21:58:35.518Z,25.55
2022-10-30T22:01:02.284Z,18.92
2022-10-30T22:03:28.919Z,24.60
2022-10-30T22:05:55.553Z,22.52
2022-10-30T22:08:22.267Z,28.02
2022-10-30T22:10:48.889Z,23.17
2022-10-30T22:13:15.650Z,23.75
2022-10-30T22:15:42.293Z,21.05
2022-10-30T22:18:09.099Z,29.10
2022-10-30T22:20:35.812Z,23.65
2022-10-30T22:23:02.446Z,26.52
2022-10-30T22:25:29.041Z,31.60
2022-10-30T22:27:55.652Z,25.23
2022-10-30T22:30:22.286Z,19.83
2022-10-30T22:32:48.888Z,23.80
2022-10-30T22:35:15.619Z,24.05
2022-10-30T22:37:42.205Z,21.33
2022-10-30T22:40:09.223Z,23.10
2022-10-30T22:42:35.862Z,28.02
2022-10-30T22:45:02.520Z,18.98
2022-10-30T22:47:29.098Z,16.92
2022-10-30T22:49:55.740Z,23.58
2022-10-30T22:52:22.354Z,21.35
2022-10-30T22:54:49.029Z,19.27
2022-10-30T22:57:15.687Z,22.88
2022-10-30T22:59:42.359Z,18.50
2022-10-30T23:02:09.052Z,21.25
2022-10-30T23:04:35.760Z,21.48
2022-10-30T23:07:02.336Z,20.63
2022-10-30T23:09:29.008Z,21.75
2022-10-30T23:11:55.615Z,23.00
2022-10-30T23:14:22.246Z,17.92
2022-10-30T23:16:48.877Z,20.70
2022-10-30T23:19:15.516Z,22.27
2022-10-30T23:21:42.107Z,29.45
2022-10-30T23:24:08.727Z,23.00
2022-10-30T23:26:35.447Z,22.65
2022-10-30T23:29:02.223Z,20.95
2022-10-30T23:31:38.955Z,18.20
2022-10-30T23:34:07.376Z,21.83
2022-10-30T23:36:33.998Z,19.75
2022-10-30T23:39:01.570Z,16.00
2022-10-30T23:41:29.613Z,20.83
2022-10-30T23:43:57.334Z,22.75
2022-10-30T23:46:24.022Z,17.67
2022-10-30T23:48:50.734Z,26.35
2022-10-30T23:51:17.330Z,24.33
2022-10-30T23:53:44.149Z,16.90
2022-10-30T23:56:10.821Z,25.55
2022-10-30T23:58:37.521Z,20.00
